Aviation Digital Data Service (ADDS)

Output produced by METARs form (0334 UTC 24 June 2021)
found at http://aviationweather.gov/metar/data/
 
EDDP 240320Z 36005KT 9999 SCT041 OVC045 15/11 Q1018 NOSIG
TAF EDDP 232300Z 2400/2424 02005KT CAVOK 
     PROB40 
     TEMPO 2409/2421 4000 SHRA SCT020CB BKN030 
     PROB30 
     TEMPO 2412/2421 TSRA BKN010CB